CA-0073 weather

CLOSED Calgary (Children's Hospital) Heliport
Alberta, Canada

Public forecast

Using degrees Celsius for public forecast. Weather courtesy of forecast.io.

METAR (pilot weather report)

Closest report is Calgary International Airport, 6.1 nm (11.2 km) NE. Retrieved 2019/06/20 04:00 UTC (16 minutes ago):

CYYC 200400Z 35006KT 15SM SCT063 08/03 A2981 RMK SC3 SLP117 DENSITY ALT 3800FT

TAF (pilot weather forecast)

Closest forecast is Calgary International Airport, 6.1 nm (11.2 km) NE. Retrieved 2019/06/20 03:42 UTC (34 minutes ago):

TAF TAF CYYC 200238Z 2003/2024 34012KT P6SM FEW050 BKN090 TEMPO 2003/2006 P6SM -SHRA BKN050 BKN090 FM200600 30010KT P6SM BKN030 TEMPO 2006/2010 P6SM -SHRA BKN020 FM201000 29010KT P6SM OVC030 TEMPO 2010/2018 5SM -SHRA BR OVC015 FM201800 32015G25KT P6SM OVC030 TEMPO 2018/2024 P6SM -SHRA OVC020 RMK NXT FCST BY 200600Z